Portada
METAR-TAF:

METAR-TAF

Aeroports :

Kerteh, Malàisia

latitud: 04-32-15N, longitud: 103-25-36E, altitud: 5 m

Observació

L'informe es va fer fa 22 minuts, a les 22:00 UTC
Vent calma
Temperatura 23°C
Humitat 94%
Pressió 1011 hPa

METAR: WMKE 012200Z AUTO 00000KT //// // ////// 23/22 Q1011

Hora: 06:22 (22:22 UTC)

Pronòstic

L'informe es va fer fa 5 hores i 22 minuts, a les 17:00 UTC
Pronòstic vàlid del 01 a les 18 UTC al 02 a les 18 UTC
Vent 3 kt amb direcció variable
Visibilitat 10 km o més
Escasses núvols a una alçada de 1500 ft
Evolucionant progressivament
l' 02 a les 03 UTC al 02 a les 05 UTC
Vent 6 kt del Est/Nord-Est
Escasses núvols a una alçada de 1400 ft
Evolucionant progressivament
l' 02 a les 11 UTC al 02 a les 12 UTC
Vent 3 kt amb direcció variable
Escasses núvols a una alçada de 1500 ft

TAF: WMKE 011700Z 0118/0218 VRB03KT 9999 FEW015 BECMG 0203/0205 07006KT FEW014 BECMG 0211/0212 VRB03KT FEW015

Observacions i pronòstics meteorològics de més de 4000 aeroports (METAR i TAF).

Les estacions disponibles són els punts grocs i vermells al mapa.

Posi el ratolí al punt desitjat per veure el nom de l'estació.

Feu clic per veure les observacions i els pronòstics meteorològics.

Per canviar el mapa: feu clic els botons verds amb una creu de color negre per apropar; al botó verd amb un guió per allunyar la imatge; o en les fletxes verdes per a mapes adjacents.


METAR-TAF: